createdAt,value
2018-04-24T00:00:30.506Z,22.00
2018-04-24T00:01:08.518Z,22.00
2018-04-24T00:01:45.859Z,22.00
2018-04-24T00:02:23.299Z,22.00
2018-04-24T00:03:01.238Z,22.00
2018-04-24T00:03:38.648Z,22.00
2018-04-24T00:04:15.966Z,22.10
2018-04-24T00:04:54.100Z,22.10
2018-04-24T00:05:31.471Z,22.10
2018-04-24T00:06:09.655Z,22.00
2018-04-24T00:06:47.063Z,22.00
2018-04-24T00:07:24.443Z,22.00
2018-04-24T00:08:02.629Z,22.00
2018-04-24T00:08:39.847Z,22.00
2018-04-24T00:09:17.875Z,22.00
2018-04-24T00:09:56.170Z,22.00
2018-04-24T00:10:33.433Z,22.00
2018-04-24T00:11:10.837Z,22.00
2018-04-24T00:11:48.205Z,22.00
2018-04-24T00:12:25.617Z,22.00
2018-04-24T00:13:03.028Z,22.00
2018-04-24T00:13:40.378Z,22.00
2018-04-24T00:14:17.515Z,22.00
2018-04-24T00:14:54.959Z,22.00
2018-04-24T00:15:32.347Z,21.90
2018-04-24T00:16:10.470Z,21.90
2018-04-24T00:16:47.800Z,21.90
2018-04-24T00:17:24.965Z,21.90
2018-04-24T00:18:02.360Z,21.90
2018-04-24T00:18:39.551Z,21.90
2018-04-24T00:19:17.755Z,21.90
2018-04-24T00:19:55.187Z,21.90
2018-04-24T00:20:33.354Z,21.80
2018-04-24T00:21:10.555Z,21.90
2018-04-24T00:21:48.686Z,21.90
2018-04-24T00:22:26.060Z,21.80
2018-04-24T00:23:03.490Z,21.90
2018-04-24T00:23:40.978Z,21.90
2018-04-24T00:24:18.363Z,21.90
2018-04-24T00:24:55.553Z,21.90
2018-04-24T00:25:32.766Z,21.90
2018-04-24T00:26:10.783Z,21.90
2018-04-24T00:26:48.138Z,21.90
2018-04-24T00:27:26.306Z,22.00
2018-04-24T00:28:04.401Z,22.00
2018-04-24T00:28:42.582Z,21.90
2018-04-24T00:29:19.848Z,22.00
2018-04-24T00:29:58.082Z,22.00
2018-04-24T00:30:35.505Z,22.00
2018-04-24T00:31:13.749Z,22.00
2018-04-24T00:31:51.137Z,22.00
2018-04-24T00:32:28.306Z,22.00
2018-04-24T00:33:06.466Z,22.00
2018-04-24T00:33:44.596Z,22.00
2018-04-24T00:34:22.014Z,22.00
2018-04-24T00:34:59.213Z,22.00
2018-04-24T00:35:37.425Z,22.00
2018-04-24T00:36:15.644Z,22.00
2018-04-24T00:36:53.023Z,22.00
2018-04-24T00:37:30.238Z,22.00
2018-04-24T00:38:07.594Z,22.00
2018-04-24T00:38:45.739Z,22.00
2018-04-24T00:39:23.936Z,22.00
2018-04-24T00:40:01.298Z,22.00
2018-04-24T00:40:38.777Z,22.00
2018-04-24T00:41:16.781Z,21.90
2018-04-24T00:41:54.977Z,21.90
2018-04-24T00:42:32.190Z,21.90
2018-04-24T00:43:09.633Z,21.90
2018-04-24T00:43:46.846Z,21.90
2018-04-24T00:44:25.000Z,21.90
2018-04-24T00:45:03.196Z,22.00
2018-04-24T00:45:40.517Z,22.00
2018-04-24T00:46:17.702Z,21.90
2018-04-24T00:46:55.118Z,21.90
2018-04-24T00:47:32.390Z,21.90
2018-04-24T00:48:09.666Z,21.90
2018-04-24T00:48:47.097Z,22.00
2018-04-24T00:49:24.502Z,21.90
2018-04-24T00:50:01.865Z,22.00
2018-04-24T00:50:39.368Z,22.00
2018-04-24T00:51:16.858Z,22.00
2018-04-24T00:51:54.229Z,21.90
2018-04-24T00:52:32.453Z,21.90
2018-04-24T00:53:10.622Z,21.90
2018-04-24T00:53:48.821Z,21.90
2018-04-24T00:54:26.215Z,21.90
2018-04-24T00:55:03.606Z,21.90
2018-04-24T00:55:41.555Z,22.00
2018-04-24T00:56:18.969Z,21.90
2018-04-24T00:56:56.371Z,22.00
2018-04-24T00:57:34.520Z,21.90
2018-04-24T00:58:11.801Z,21.90
2018-04-24T00:58:49.970Z,21.90
2018-04-24T00:59:27.375Z,21.80
2018-04-24T01:00:05.366Z,21.90
2018-04-24T01:00:42.590Z,21.80
2018-04-24T01:01:19.749Z,21.90
2018-04-24T01:01:57.125Z,21.90
2018-04-24T01:02:34.443Z,21.90
2018-04-24T01:03:12.651Z,22.00
2018-04-24T01:03:49.849Z,22.00
2018-04-24T01:04:28.003Z,22.00
2018-04-24T01:05:05.440Z,22.00
2018-04-24T01:05:43.573Z,22.00
2018-04-24T01:06:21.764Z,22.00
2018-04-24T01:06:59.130Z,22.00
2018-04-24T01:07:36.541Z,22.00
2018-04-24T01:08:14.757Z,22.00
2018-04-24T01:08:52.817Z,22.00
2018-04-24T01:09:30.179Z,21.90
2018-04-24T01:10:07.518Z,22.00
2018-04-24T01:10:44.916Z,22.00
2018-04-24T01:11:22.949Z,22.00
2018-04-24T01:12:00.271Z,22.00
2018-04-24T01:12:37.729Z,22.00
2018-04-24T01:13:15.961Z,22.00
2018-04-24T01:13:53.162Z,22.00
2018-04-24T01:14:30.402Z,22.00
2018-04-24T01:15:07.617Z,22.00
2018-04-24T01:15:44.831Z,21.90
2018-04-24T01:16:22.301Z,22.20
2018-04-24T01:17:00.539Z,21.80
2018-04-24T01:17:37.986Z,21.80
2018-04-24T01:18:15.424Z,21.80
2018-04-24T01:18:53.482Z,21.80
2018-04-24T01:19:30.809Z,21.80
2018-04-24T01:20:08.181Z,21.80
2018-04-24T01:20:46.324Z,21.80
2018-04-24T01:21:24.520Z,21.80
2018-04-24T01:22:01.979Z,21.80
2018-04-24T01:22:39.225Z,21.80
2018-04-24T01:23:16.621Z,21.80
2018-04-24T01:23:54.042Z,21.80
2018-04-24T01:24:32.010Z,21.80
2018-04-24T01:25:10.116Z,21.80
2018-04-24T01:25:47.494Z,21.80
2018-04-24T01:26:24.885Z,21.80
2018-04-24T01:27:03.076Z,21.80
2018-04-24T01:27:41.259Z,21.80
2018-04-24T01:28:18.686Z,21.70
2018-04-24T01:28:56.728Z,21.70
2018-04-24T01:29:34.004Z,21.70
2018-04-24T01:30:11.399Z,21.70
2018-04-24T01:30:49.595Z,21.60
2018-04-24T01:31:26.719Z,21.60
2018-04-24T01:32:04.170Z,21.70
2018-04-24T01:32:42.426Z,21.60
2018-04-24T01:33:19.627Z,21.70
2018-04-24T01:33:56.995Z,21.70
2018-04-24T01:34:35.165Z,21.70
2018-04-24T01:35:13.370Z,21.70
2018-04-24T01:35:50.598Z,21.70
2018-04-24T01:36:27.904Z,21.70
2018-04-24T01:37:06.094Z,21.60
2018-04-24T01:37:43.358Z,21.70
2018-04-24T01:38:20.746Z,21.60
2018-04-24T01:38:57.931Z,21.70
2018-04-24T01:39:35.386Z,21.70
2018-04-24T01:40:12.846Z,21.80
2018-04-24T01:40:50.326Z,21.80
2018-04-24T01:41:27.726Z,21.80
2018-04-24T01:42:05.124Z,21.80
2018-04-24T01:42:43.107Z,21.70
2018-04-24T01:43:20.542Z,21.70
2018-04-24T01:43:58.679Z,21.80
2018-04-24T01:44:36.875Z,21.80
2018-04-24T01:45:14.315Z,21.80
2018-04-24T01:45:52.550Z,21.80
2018-04-24T01:46:29.895Z,21.70
2018-04-24T01:47:08.020Z,21.80
2018-04-24T01:47:46.205Z,21.80
2018-04-24T01:48:23.692Z,21.70
2018-04-24T01:49:01.932Z,21.70
2018-04-24T01:49:39.222Z,21.70
2018-04-24T01:50:17.394Z,21.70
2018-04-24T01:50:55.551Z,21.70
2018-04-24T01:51:33.001Z,21.70
2018-04-24T01:52:11.210Z,21.70
2018-04-24T01:52:49.346Z,21.70
2018-04-24T01:53:26.706Z,21.60
2018-04-24T01:54:04.113Z,21.70
2018-04-24T01:54:41.301Z,21.60
2018-04-24T01:55:18.526Z,21.60
2018-04-24T01:55:55.719Z,21.60
2018-04-24T01:56:33.687Z,21.50
2018-04-24T01:57:11.125Z,21.60
2018-04-24T01:57:49.360Z,21.60
2018-04-24T01:58:26.616Z,21.60
2018-04-24T01:59:04.053Z,21.60
2018-04-24T01:59:41.271Z,21.60
2018-04-24T02:00:19.277Z,21.60
2018-04-24T02:00:56.701Z,21.40
2018-04-24T02:01:34.052Z,21.60
2018-04-24T02:02:11.433Z,21.60
2018-04-24T02:02:49.590Z,21.60
2018-04-24T02:03:27.780Z,21.50
2018-04-24T02:04:05.053Z,21.50
2018-04-24T02:04:42.322Z,21.50
2018-04-24T02:05:20.328Z,21.60
2018-04-24T02:05:57.696Z,21.50
2018-04-24T02:06:34.986Z,21.50
2018-04-24T02:07:12.351Z,21.50
2018-04-24T02:07:50.555Z,21.50
2018-04-24T02:08:28.734Z,21.50
2018-04-24T02:09:06.188Z,21.50
2018-04-24T02:09:43.505Z,21.50
2018-04-24T02:10:21.485Z,21.50
2018-04-24T02:10:59.683Z,21.50
2018-04-24T02:11:37.787Z,21.50
2018-04-24T02:12:15.188Z,21.50
2018-04-24T02:12:53.125Z,21.50
2018-04-24T02:13:30.413Z,21.50
2018-04-24T02:14:07.851Z,21.50
2018-04-24T02:14:45.416Z,21.50
2018-04-24T02:15:22.598Z,21.60
2018-04-24T02:16:00.751Z,21.60
2018-04-24T02:16:38.997Z,21.60
2018-04-24T02:17:16.284Z,21.60
2018-04-24T02:17:53.569Z,21.60
2018-04-24T02:18:30.924Z,21.60
2018-04-24T02:19:08.198Z,21.60
2018-04-24T02:19:46.329Z,21.60
2018-04-24T02:20:24.525Z,21.60
2018-04-24T02:21:01.818Z,21.50
2018-04-24T02:21:39.092Z,21.50
2018-04-24T02:22:16.453Z,21.60
2018-04-24T02:22:54.445Z,21.60
2018-04-24T02:23:31.892Z,21.60
2018-04-24T02:24:09.929Z,21.60
2018-04-24T02:24:48.122Z,21.60
2018-04-24T02:25:25.242Z,21.60
2018-04-24T02:26:02.617Z,21.60
2018-04-24T02:26:40.017Z,21.60
2018-04-24T02:27:17.468Z,21.50
2018-04-24T02:27:54.788Z,21.60
2018-04-24T02:28:32.239Z,21.50
2018-04-24T02:29:10.360Z,21.50
2018-04-24T02:29:47.723Z,21.50
2018-04-24T02:30:25.937Z,21.50
2018-04-24T02:31:03.202Z,21.50
2018-04-24T02:31:41.406Z,21.50
2018-04-24T02:32:18.804Z,21.50
2018-04-24T02:32:56.250Z,21.60
2018-04-24T02:33:34.444Z,21.60
2018-04-24T02:34:11.791Z,21.50
2018-04-24T02:34:49.904Z,21.60
2018-04-24T02:35:27.266Z,21.50
2018-04-24T02:36:04.477Z,21.50
2018-04-24T02:36:41.827Z,21.50
2018-04-24T02:37:19.005Z,21.50
2018-04-24T02:37:56.283Z,21.50
2018-04-24T02:38:33.580Z,21.50
2018-04-24T02:39:11.014Z,21.50
2018-04-24T02:39:48.189Z,21.50
2018-04-24T02:40:25.614Z,21.50
2018-04-24T02:41:03.821Z,21.50
2018-04-24T02:41:41.989Z,21.50
2018-04-24T02:42:20.246Z,21.50
2018-04-24T02:42:58.152Z,21.50
2018-04-24T02:43:35.540Z,21.50
2018-04-24T02:44:12.858Z,21.50
2018-04-24T02:44:50.058Z,21.50
2018-04-24T02:45:27.380Z,21.50
2018-04-24T02:46:04.867Z,21.50
2018-04-24T02:46:43.043Z,21.40
2018-04-24T02:47:21.240Z,21.50
2018-04-24T02:47:58.698Z,21.40
2018-04-24T02:48:35.865Z,21.40
2018-04-24T02:49:13.290Z,21.40
2018-04-24T02:49:51.461Z,21.40
2018-04-24T02:50:28.862Z,21.40
2018-04-24T02:51:06.827Z,21.50
2018-04-24T02:51:45.048Z,21.50
2018-04-24T02:52:22.368Z,21.50
2018-04-24T02:53:00.617Z,21.50
2018-04-24T02:53:37.805Z,21.50
2018-04-24T02:54:15.232Z,21.50
2018-04-24T02:54:52.506Z,21.50
2018-04-24T02:55:30.626Z,21.40
2018-04-24T02:56:08.060Z,21.40
2018-04-24T02:56:45.446Z,21.40
2018-04-24T02:57:23.585Z,21.30
2018-04-24T02:58:01.672Z,21.40
2018-04-24T02:58:39.001Z,21.40
2018-04-24T02:59:16.131Z,21.40
2018-04-24T02:59:53.383Z,21.40
2018-04-24T03:00:30.765Z,21.30
2018-04-24T03:01:08.157Z,21.30
2018-04-24T03:01:45.321Z,21.40
2018-04-24T03:02:23.285Z,21.30
2018-04-24T03:03:00.712Z,21.30
2018-04-24T03:03:38.868Z,21.40
2018-04-24T03:04:16.245Z,21.40
2018-04-24T03:04:53.394Z,21.40
2018-04-24T03:05:30.547Z,21.40
2018-04-24T03:06:07.934Z,21.40
2018-04-24T03:06:46.164Z,21.40
2018-04-24T03:07:24.346Z,21.50
2018-04-24T03:08:01.585Z,21.40
2018-04-24T03:08:39.083Z,21.40
2018-04-24T03:09:17.090Z,21.40
2018-04-24T03:09:54.434Z,21.40
2018-04-24T03:10:31.853Z,21.40
2018-04-24T03:11:10.039Z,21.50
2018-04-24T03:11:48.315Z,21.50
2018-04-24T03:12:26.440Z,21.40
2018-04-24T03:13:03.692Z,21.40
2018-04-24T03:13:41.812Z,21.40
2018-04-24T03:14:19.149Z,21.40
2018-04-24T03:14:56.530Z,21.40
2018-04-24T03:15:33.798Z,21.40
2018-04-24T03:16:11.288Z,21.40
2018-04-24T03:16:49.325Z,21.40
2018-04-24T03:17:26.561Z,21.30
2018-04-24T03:18:03.974Z,21.30
2018-04-24T03:18:41.332Z,21.40
2018-04-24T03:19:19.613Z,21.30
2018-04-24T03:19:57.042Z,21.30
2018-04-24T03:20:34.459Z,21.30
2018-04-24T03:21:11.618Z,21.40
2018-04-24T03:21:49.726Z,21.40
2018-04-24T03:22:27.114Z,21.40
2018-04-24T03:23:04.277Z,21.40
2018-04-24T03:23:41.449Z,21.40
2018-04-24T03:24:18.830Z,21.50
2018-04-24T03:24:56.304Z,21.50
2018-04-24T03:25:33.602Z,21.50
2018-04-24T03:26:10.848Z,21.50
2018-04-24T03:26:48.210Z,21.50
2018-04-24T03:27:25.653Z,21.50
2018-04-24T03:28:02.855Z,21.50
2018-04-24T03:28:40.149Z,21.50
2018-04-24T03:29:17.469Z,21.50
2018-04-24T03:29:54.827Z,21.50
2018-04-24T03:30:32.084Z,21.50
2018-04-24T03:31:10.082Z,21.50
2018-04-24T03:31:48.062Z,21.40
2018-04-24T03:32:26.168Z,21.40
2018-04-24T03:33:04.157Z,21.40
2018-04-24T03:33:41.522Z,21.40
2018-04-24T03:34:18.785Z,21.40
2018-04-24T03:34:56.174Z,21.40
2018-04-24T03:35:33.568Z,21.30
2018-04-24T03:36:10.711Z,21.30
2018-04-24T03:36:48.116Z,21.40
2018-04-24T03:37:25.355Z,21.40
2018-04-24T03:38:02.740Z,21.40
2018-04-24T03:38:40.216Z,21.40
2018-04-24T03:39:18.418Z,21.50
2018-04-24T03:39:56.618Z,21.50
2018-04-24T03:40:34.834Z,21.50
2018-04-24T03:41:12.175Z,21.50
2018-04-24T03:41:50.283Z,21.50
2018-04-24T03:42:28.501Z,21.50
2018-04-24T03:43:05.869Z,21.50
2018-04-24T03:43:43.234Z,21.50
2018-04-24T03:44:20.709Z,21.60
2018-04-24T03:44:57.866Z,21.50
2018-04-24T03:45:35.115Z,21.60
2018-04-24T03:46:12.504Z,21.60
2018-04-24T03:46:49.708Z,21.60
2018-04-24T03:47:28.024Z,21.60
2018-04-24T03:48:05.430Z,21.60
2018-04-24T03:48:42.837Z,21.60
2018-04-24T03:49:20.102Z,21.60
2018-04-24T03:49:58.238Z,21.60
2018-04-24T03:50:35.698Z,21.60
2018-04-24T03:51:12.920Z,21.60
2018-04-24T03:51:50.262Z,21.60
2018-04-24T03:52:27.644Z,21.60
2018-04-24T03:53:05.830Z,21.60
2018-04-24T03:53:43.208Z,21.50
2018-04-24T03:54:20.417Z,21.50
2018-04-24T03:54:57.571Z,21.40
2018-04-24T03:55:35.586Z,21.50
2018-04-24T03:56:12.934Z,21.40
2018-04-24T03:56:50.947Z,21.40
2018-04-24T03:57:28.233Z,21.40
2018-04-24T03:58:05.587Z,21.40
2018-04-24T03:58:42.844Z,21.40
2018-04-24T03:59:20.280Z,21.40
2018-04-24T03:59:58.332Z,21.40
2018-04-24T04:00:35.713Z,21.40
2018-04-24T04:01:13.089Z,21.40
2018-04-24T04:01:50.523Z,21.40
2018-04-24T04:02:28.018Z,21.40
2018-04-24T04:03:05.475Z,21.40
2018-04-24T04:03:42.883Z,21.30
2018-04-24T04:04:20.026Z,21.30
2018-04-24T04:04:58.243Z,21.20
2018-04-24T04:05:36.462Z,21.20
2018-04-24T04:06:13.799Z,21.20
2018-04-24T04:06:51.229Z,21.20
2018-04-24T04:07:29.252Z,21.30
2018-04-24T04:08:06.388Z,21.30
2018-04-24T04:08:43.789Z,21.30
2018-04-24T04:09:21.148Z,21.30
2018-04-24T04:09:59.300Z,21.30
2018-04-24T04:10:36.700Z,21.30
2018-04-24T04:11:14.871Z,21.30
2018-04-24T04:11:53.069Z,21.30
2018-04-24T04:12:30.363Z,21.30
2018-04-24T04:13:07.642Z,21.30
2018-04-24T04:13:45.640Z,21.30
2018-04-24T04:14:22.996Z,21.30
2018-04-24T04:15:00.343Z,21.30
2018-04-24T04:15:37.662Z,21.30
2018-04-24T04:16:15.835Z,21.30
2018-04-24T04:16:54.028Z,21.30
2018-04-24T04:17:32.127Z,21.30
2018-04-24T04:18:09.562Z,21.30
2018-04-24T04:18:47.710Z,21.30
2018-04-24T04:19:24.890Z,21.20
2018-04-24T04:20:02.318Z,21.20
2018-04-24T04:20:40.566Z,21.20
2018-04-24T04:21:17.907Z,21.20
2018-04-24T04:21:55.259Z,21.20
2018-04-24T04:22:32.801Z,21.20
2018-04-24T04:23:10.660Z,21.30
2018-04-24T04:23:48.119Z,21.30
2018-04-24T04:24:25.483Z,21.30
2018-04-24T04:25:03.859Z,21.30
2018-04-24T04:25:42.016Z,21.40
2018-04-24T04:26:20.197Z,21.40
2018-04-24T04:26:58.394Z,21.40
2018-04-24T04:27:36.503Z,21.40
2018-04-24T04:28:13.635Z,21.40
2018-04-24T04:28:51.856Z,21.40
2018-04-24T04:29:29.310Z,21.40
2018-04-24T04:30:06.610Z,21.40
2018-04-24T04:30:43.891Z,21.40
2018-04-24T04:31:22.085Z,21.40
2018-04-24T04:31:59.329Z,21.40
2018-04-24T04:32:36.716Z,21.40
2018-04-24T04:33:14.140Z,21.40
2018-04-24T04:33:51.356Z,21.10
2018-04-24T04:34:28.832Z,21.30
2018-04-24T04:35:06.007Z,21.40
2018-04-24T04:35:43.170Z,21.40
2018-04-24T04:36:20.390Z,21.40
2018-04-24T04:36:57.677Z,21.30
2018-04-24T04:37:35.095Z,21.40
2018-04-24T04:38:12.307Z,21.40
2018-04-24T04:38:49.536Z,21.40
2018-04-24T04:39:26.713Z,21.50
2018-04-24T04:40:04.198Z,21.50
2018-04-24T04:40:41.603Z,21.50
2018-04-24T04:41:19.022Z,21.50
2018-04-24T04:41:56.284Z,21.50
2018-04-24T04:42:34.498Z,21.50
2018-04-24T04:43:11.938Z,21.50
2018-04-24T04:43:49.374Z,21.50
2018-04-24T04:44:26.615Z,21.60
2018-04-24T04:45:03.938Z,21.50
2018-04-24T04:45:41.414Z,21.50
2018-04-24T04:46:18.679Z,21.50
2018-04-24T04:46:55.957Z,21.50
2018-04-24T04:47:33.231Z,21.50
2018-04-24T04:48:10.701Z,21.50
2018-04-24T04:48:48.824Z,21.50
2018-04-24T04:49:25.974Z,21.50
2018-04-24T04:50:03.242Z,21.50
2018-04-24T04:50:40.660Z,21.50
2018-04-24T04:51:18.925Z,21.40
2018-04-24T04:51:56.262Z,21.40
2018-04-24T04:52:33.722Z,21.30
2018-04-24T04:53:10.963Z,21.30
2018-04-24T04:53:48.351Z,21.30
2018-04-24T04:54:25.593Z,21.20
2018-04-24T04:55:03.054Z,21.20
2018-04-24T04:55:40.252Z,21.20
2018-04-24T04:56:18.588Z,21.10
2018-04-24T04:56:55.845Z,21.10
2018-04-24T04:57:33.195Z,21.10
2018-04-24T04:58:10.542Z,21.10
2018-04-24T04:58:48.728Z,21.00
2018-04-24T04:59:26.994Z,20.90
2018-04-24T05:00:04.137Z,21.00
2018-04-24T05:00:41.629Z,20.90
2018-04-24T05:01:18.831Z,20.90
2018-04-24T05:01:56.316Z,20.90
2018-04-24T05:02:33.482Z,21.00
2018-04-24T05:03:11.661Z,21.00
2018-04-24T05:03:48.805Z,21.00
2018-04-24T05:04:26.202Z,20.90
2018-04-24T05:05:03.474Z,21.00
2018-04-24T05:05:41.517Z,21.00
2018-04-24T05:06:19.493Z,21.00
2018-04-24T05:06:56.705Z,21.00
2018-04-24T05:07:34.101Z,21.00
2018-04-24T05:08:11.552Z,21.00
2018-04-24T05:08:48.940Z,21.00
2018-04-24T05:09:26.859Z,21.00
2018-04-24T05:10:05.082Z,21.10
2018-04-24T05:10:42.367Z,21.10
2018-04-24T05:11:19.508Z,21.10
2018-04-24T05:11:57.805Z,21.00
2018-04-24T05:12:35.693Z,21.00
2018-04-24T05:13:13.053Z,21.00
2018-04-24T05:13:51.156Z,21.00
2018-04-24T05:14:28.608Z,21.00
2018-04-24T05:15:05.996Z,21.00
2018-04-24T05:15:43.419Z,21.00
2018-04-24T05:16:21.599Z,21.10
2018-04-24T05:16:59.782Z,21.00
2018-04-24T05:17:37.120Z,21.00
2018-04-24T05:18:14.508Z,21.00
2018-04-24T05:18:52.639Z,21.00
2018-04-24T05:19:29.967Z,21.00
2018-04-24T05:20:07.333Z,21.00
2018-04-24T05:20:45.478Z,20.80
2018-04-24T05:21:22.899Z,20.90
2018-04-24T05:22:01.044Z,20.90
2018-04-24T05:22:38.455Z,20.90
2018-04-24T05:23:16.623Z,20.90
2018-04-24T05:23:54.821Z,20.90
2018-04-24T05:24:32.218Z,20.90
2018-04-24T05:25:10.391Z,20.90
2018-04-24T05:25:48.585Z,20.90
2018-04-24T05:26:25.898Z,20.90
2018-04-24T05:27:03.297Z,21.00
2018-04-24T05:27:40.542Z,21.00
2018-04-24T05:28:18.715Z,21.00
2018-04-24T05:28:56.809Z,21.10
2018-04-24T05:29:33.943Z,21.00
2018-04-24T05:30:11.339Z,21.00
2018-04-24T05:30:48.714Z,21.10
2018-04-24T05:31:26.939Z,21.10
2018-04-24T05:32:05.138Z,21.10
2018-04-24T05:32:42.345Z,21.10
2018-04-24T05:33:20.473Z,21.10
2018-04-24T05:33:57.931Z,21.10
2018-04-24T05:34:35.089Z,21.20
2018-04-24T05:35:12.462Z,21.20
2018-04-24T05:35:49.730Z,21.20
2018-04-24T05:36:27.192Z,21.10
2018-04-24T05:37:04.520Z,21.10
2018-04-24T05:37:41.914Z,21.10
2018-04-24T05:38:19.292Z,21.10
2018-04-24T05:38:56.465Z,21.10
2018-04-24T05:39:33.866Z,21.10
2018-04-24T05:40:11.299Z,21.00
2018-04-24T05:40:48.770Z,21.00
2018-04-24T05:41:25.964Z,21.00
2018-04-24T05:42:03.149Z,21.00
2018-04-24T05:42:40.604Z,21.00
2018-04-24T05:43:18.803Z,21.00
2018-04-24T05:43:56.250Z,21.00
2018-04-24T05:44:33.654Z,21.00
2018-04-24T05:45:10.928Z,21.00
2018-04-24T05:45:48.380Z,21.00
2018-04-24T05:46:25.674Z,21.00
2018-04-24T05:47:02.908Z,21.00
2018-04-24T05:47:40.189Z,21.00
2018-04-24T05:48:17.401Z,21.00
2018-04-24T05:48:54.811Z,21.00
2018-04-24T05:49:32.020Z,21.10
2018-04-24T05:50:10.364Z,21.00
2018-04-24T05:50:47.714Z,21.00
2018-04-24T05:51:25.109Z,21.00
2018-04-24T05:52:02.571Z,21.00
2018-04-24T05:52:39.774Z,20.90
2018-04-24T05:53:16.942Z,20.90
2018-04-24T05:53:54.379Z,20.90
2018-04-24T05:54:31.776Z,21.00
2018-04-24T05:55:09.987Z,21.00
2018-04-24T05:55:47.953Z,21.00
2018-04-24T05:56:25.418Z,21.00
2018-04-24T05:57:03.333Z,21.10
2018-04-24T05:57:40.525Z,21.10
2018-04-24T05:58:18.708Z,21.10
2018-04-24T05:58:56.698Z,21.10
2018-04-24T05:59:34.902Z,21.20
2018-04-24T06:00:13.092Z,21.20
2018-04-24T06:00:50.333Z,21.20
2018-04-24T06:01:27.640Z,21.20
2018-04-24T06:02:04.918Z,21.20
2018-04-24T06:02:42.317Z,21.20
2018-04-24T06:03:19.704Z,21.20
2018-04-24T06:03:57.081Z,21.20
2018-04-24T06:04:34.499Z,21.20
2018-04-24T06:05:11.783Z,21.20
2018-04-24T06:05:49.072Z,21.20
2018-04-24T06:06:26.459Z,21.20
2018-04-24T06:07:03.795Z,21.10
2018-04-24T06:07:41.224Z,21.10
2018-04-24T06:08:18.496Z,21.20
2018-04-24T06:08:55.746Z,21.20
2018-04-24T06:09:33.056Z,21.10
2018-04-24T06:10:10.467Z,21.10
2018-04-24T06:10:47.894Z,21.10
2018-04-24T06:11:26.063Z,21.00
2018-04-24T06:12:03.454Z,21.00
2018-04-24T06:12:40.596Z,21.00
2018-04-24T06:13:18.075Z,21.00
2018-04-24T06:13:55.460Z,21.00
2018-04-24T06:14:32.878Z,20.90
2018-04-24T06:15:11.058Z,20.90
2018-04-24T06:15:49.249Z,21.00
2018-04-24T06:16:26.523Z,21.00
2018-04-24T06:17:04.618Z,21.00
2018-04-24T06:17:42.730Z,21.00
2018-04-24T06:18:20.146Z,21.00
2018-04-24T06:18:57.496Z,21.00
2018-04-24T06:19:34.719Z,20.90
2018-04-24T06:20:12.111Z,20.90
2018-04-24T06:20:50.204Z,20.80
2018-04-24T06:21:27.582Z,20.80
2018-04-24T06:22:04.991Z,20.80
2018-04-24T06:22:43.149Z,20.80
2018-04-24T06:23:20.427Z,20.80
2018-04-24T06:23:58.623Z,20.90
2018-04-24T06:24:36.717Z,20.90
2018-04-24T06:25:14.152Z,21.00
2018-04-24T06:25:51.544Z,21.00
2018-04-24T06:26:29.670Z,21.00
2018-04-24T06:27:07.776Z,21.10
2018-04-24T06:27:45.115Z,21.10
2018-04-24T06:28:22.523Z,21.10
2018-04-24T06:28:59.874Z,21.10
2018-04-24T06:29:37.309Z,21.10
2018-04-24T06:30:14.565Z,21.10
2018-04-24T06:30:52.728Z,21.10
2018-04-24T06:31:30.920Z,21.10
2018-04-24T06:32:08.138Z,21.10
2018-04-24T06:32:45.549Z,21.10
2018-04-24T06:33:22.719Z,21.20
2018-04-24T06:34:00.087Z,21.20
2018-04-24T06:34:37.468Z,21.20
2018-04-24T06:35:14.894Z,21.20
2018-04-24T06:35:52.314Z,21.10
2018-04-24T06:36:30.443Z,21.10
2018-04-24T06:37:07.700Z,21.10
2018-04-24T06:37:45.940Z,21.20
2018-04-24T06:38:23.152Z,21.20
2018-04-24T06:39:01.388Z,21.20
2018-04-24T06:39:38.843Z,21.20
2018-04-24T06:40:16.271Z,21.20
2018-04-24T06:40:54.433Z,21.20
2018-04-24T06:41:32.636Z,21.20
2018-04-24T06:42:09.885Z,21.20
2018-04-24T06:42:48.011Z,21.20
2018-04-24T06:43:25.364Z,21.10
2018-04-24T06:44:02.831Z,21.20
2018-04-24T06:44:40.333Z,21.30
2018-04-24T06:45:17.706Z,21.30
2018-04-24T06:45:55.136Z,21.30
2018-04-24T06:46:32.523Z,21.30
2018-04-24T06:47:10.686Z,21.30
2018-04-24T06:47:48.849Z,21.30
2018-04-24T06:48:26.155Z,21.30
2018-04-24T06:49:03.498Z,21.30
2018-04-24T06:49:40.839Z,21.20
2018-04-24T06:50:18.218Z,21.20
2018-04-24T06:50:55.648Z,21.10
2018-04-24T06:51:33.738Z,21.10
2018-04-24T06:52:11.837Z,21.10
2018-04-24T06:52:49.157Z,21.10
2018-04-24T06:53:27.298Z,21.10
2018-04-24T06:54:04.738Z,21.10
2018-04-24T06:54:42.994Z,21.10
2018-04-24T06:55:21.182Z,21.00
2018-04-24T06:55:58.499Z,21.00
2018-04-24T06:56:35.768Z,21.00
2018-04-24T06:57:13.196Z,21.00
2018-04-24T06:57:51.190Z,20.90
2018-04-24T06:58:28.705Z,20.90
2018-04-24T06:59:06.169Z,20.90
2018-04-24T06:59:44.216Z,21.00
2018-04-24T07:00:21.679Z,21.00
2018-04-24T07:00:59.690Z,21.00
2018-04-24T07:01:37.802Z,21.00
2018-04-24T07:02:16.026Z,21.00
2018-04-24T07:02:53.419Z,21.00
2018-04-24T07:03:30.647Z,21.00
2018-04-24T07:04:08.841Z,20.90
2018-04-24T07:04:47.022Z,20.90
2018-04-24T07:05:24.410Z,20.90
2018-04-24T07:06:02.610Z,20.90
2018-04-24T07:06:39.978Z,20.90
2018-04-24T07:07:18.204Z,20.90
2018-04-24T07:07:55.578Z,20.90
2018-04-24T07:08:33.553Z,20.90
2018-04-24T07:09:10.923Z,20.90
2018-04-24T07:09:48.157Z,20.90
2018-04-24T07:10:26.402Z,20.80
2018-04-24T07:11:04.624Z,20.70
2018-04-24T07:11:41.818Z,20.70
2018-04-24T07:12:19.266Z,20.80
2018-04-24T07:12:56.639Z,20.70
2018-04-24T07:13:34.813Z,20.60
2018-04-24T07:14:12.214Z,20.60
2018-04-24T07:14:49.647Z,20.60
2018-04-24T07:15:27.031Z,20.60
2018-04-24T07:16:05.229Z,20.60
2018-04-24T07:16:42.608Z,20.60
2018-04-24T07:17:20.811Z,20.50
2018-04-24T07:17:58.082Z,20.50
2018-04-24T07:18:35.522Z,20.50
2018-04-24T07:19:12.794Z,20.50
2018-04-24T07:19:51.034Z,20.50
2018-04-24T07:20:28.373Z,20.50
2018-04-24T07:21:05.818Z,20.50
2018-04-24T07:21:43.990Z,20.50
2018-04-24T07:22:21.322Z,20.50
2018-04-24T07:22:59.585Z,20.50
2018-04-24T07:23:36.703Z,20.50
2018-04-24T07:24:14.924Z,20.60
2018-04-24T07:24:52.281Z,20.60
2018-04-24T07:25:29.586Z,20.60
2018-04-24T07:26:07.765Z,20.70
2018-04-24T07:26:45.096Z,20.70
2018-04-24T07:27:23.249Z,20.80
2018-04-24T07:28:00.487Z,20.80
2018-04-24T07:28:37.767Z,20.80
2018-04-24T07:29:15.250Z,20.80
2018-04-24T07:29:52.455Z,20.80
2018-04-24T07:30:30.638Z,20.90
2018-04-24T07:31:08.087Z,20.90
2018-04-24T07:31:46.090Z,20.90
2018-04-24T07:32:24.195Z,20.90
2018-04-24T07:33:01.664Z,20.90
2018-04-24T07:33:38.785Z,21.00
2018-04-24T07:34:16.933Z,21.00
2018-04-24T07:34:54.374Z,21.00
2018-04-24T07:35:31.755Z,21.10
2018-04-24T07:36:09.899Z,21.10
2018-04-24T07:36:47.903Z,21.10
2018-04-24T07:37:25.329Z,21.00
2018-04-24T07:38:03.547Z,21.00
2018-04-24T07:38:40.930Z,21.00
2018-04-24T07:39:18.322Z,21.00
2018-04-24T07:39:56.304Z,21.00
2018-04-24T07:40:33.629Z,21.00
2018-04-24T07:41:11.871Z,20.80
2018-04-24T07:41:49.196Z,20.80
2018-04-24T07:42:26.396Z,20.80
2018-04-24T07:43:04.618Z,20.80
2018-04-24T07:43:41.905Z,20.80
2018-04-24T07:44:20.157Z,20.70
2018-04-24T07:44:58.369Z,20.80
2018-04-24T07:45:35.809Z,20.80
2018-04-24T07:46:12.998Z,20.80
2018-04-24T07:46:51.233Z,20.90
2018-04-24T07:47:29.409Z,21.00
2018-04-24T07:48:06.792Z,21.00
2018-04-24T07:48:44.886Z,21.00
2018-04-24T07:49:22.316Z,21.00
2018-04-24T07:49:59.517Z,21.00
2018-04-24T07:50:36.917Z,21.00
2018-04-24T07:51:14.895Z,21.00
2018-04-24T07:51:52.265Z,21.00
2018-04-24T07:52:29.658Z,21.00
2018-04-24T07:53:07.649Z,20.90
2018-04-24T07:53:45.081Z,21.00
2018-04-24T07:54:23.210Z,20.90
2018-04-24T07:55:00.554Z,20.80
2018-04-24T07:55:38.678Z,20.70
2018-04-24T07:56:16.128Z,20.70
2018-04-24T07:56:54.250Z,20.80
2018-04-24T07:57:31.640Z,20.80
2018-04-24T07:58:08.924Z,20.80
2018-04-24T07:58:46.204Z,20.80
2018-04-24T07:59:23.563Z,20.80
2018-04-24T08:00:00.755Z,20.70
2018-04-24T08:00:38.084Z,20.70
2018-04-24T08:01:15.492Z,20.80
2018-04-24T08:01:52.945Z,20.70
2018-04-24T08:02:30.408Z,20.80
2018-04-24T08:03:07.825Z,20.80
2018-04-24T08:03:46.024Z,20.90
2018-04-24T08:04:24.293Z,21.00